Time;durP1;ratioP1;P1;durP2;ratioP2;P2;SDS_P1;SDS_P2;PMS_P1;PMS_P2;Temp;Humidity;BMP_temperature;BMP_pressure;BME280_temperature;BME280_humidity;BME280_pressure;Samples;Min_cycle;Max_cycle;Signal;HPM_P1;HPM_P2
2020/12/11 00:00:15;;;;;;;60.92;30.15;;;0.50;99.90;;;;;;5096898;28;20016;-65
2020/12/11 00:02:40;;;;;;;60.25;28.73;;;0.60;99.90;;;;;;5094999;28;20500;-67
2020/12/11 00:05:06;;;;;;;65.97;30.05;;;0.60;99.90;;;;;;5096749;28;20032;-67
2020/12/11 00:07:40;;;;;;;63.33;30.45;;;0.60;99.90;;;;;;5096451;28;20034;-67
2020/12/11 00:10:09;;;;;;;63.97;29.27;;;0.60;99.90;;;;;;5096688;28;20024;-67
2020/12/11 00:12:35;;;;;;;62.20;30.40;;;0.60;99.90;;;;;;5096295;28;20035;-67
2020/12/11 00:15:02;;;;;;;68.95;34.72;;;0.70;99.90;;;;;;5096616;28;20365;-67
2020/12/11 00:17:28;;;;;;;78.85;38.97;;;0.70;99.90;;;;;;5095400;28;20494;-65
2020/12/11 00:19:54;;;;;;;68.40;35.00;;;0.70;99.90;;;;;;5096554;28;20052;-67
2020/12/11 00:22:20;;;;;;;68.63;34.20;;;0.70;99.90;;;;;;5095092;28;20056;-65
2020/12/11 00:24:47;;;;;;;68.38;33.50;;;0.70;99.90;;;;;;5096070;28;20024;-66
2020/12/11 00:27:12;;;;;;;63.42;30.52;;;0.70;99.90;;;;;;5096404;28;20035;-67
2020/12/11 00:29:38;;;;;;;59.28;29.60;;;0.80;99.90;;;;;;5094696;28;20028;-66
2020/12/11 00:32:04;;;;;;;64.40;29.13;;;0.80;99.90;;;;;;5094366;28;20408;-66
2020/12/11 00:34:31;;;;;;;56.58;27.13;;;0.80;99.90;;;;;;5094706;28;20027;-68
2020/12/11 00:36:57;;;;;;;56.55;27.33;;;0.80;99.90;;;;;;5095635;28;20016;-67
2020/12/11 00:39:23;;;;;;;58.38;27.83;;;0.80;99.90;;;;;;5095607;28;20095;-68
2020/12/11 00:41:49;;;;;;;57.55;27.23;;;0.80;99.90;;;;;;5094831;28;20031;-67
2020/12/11 00:44:15;;;;;;;59.03;27.17;;;0.80;99.90;;;;;;5077410;28;20051;-67
2020/12/11 00:46:40;;;;;;;63.75;28.42;;;0.80;99.90;;;;;;5094521;28;20035;-67
2020/12/11 00:49:06;;;;;;;57.67;25.95;;;0.80;99.90;;;;;;5095643;28;20377;-67
2020/12/11 00:51:31;;;;;;;57.55;27.58;;;0.80;99.90;;;;;;5095820;28;20028;-67
2020/12/11 00:53:57;;;;;;;55.85;27.15;;;0.80;99.90;;;;;;5095549;28;20024;-67
2020/12/11 00:56:23;;;;;;;56.70;26.52;;;0.80;99.90;;;;;;5095761;28;20026;-67
2020/12/11 00:58:49;;;;;;;55.83;27.40;;;0.80;99.90;;;;;;5095412;28;20047;-67
2020/12/11 01:01:15;;;;;;;59.60;27.88;;;0.80;99.90;;;;;;5095641;28;20591;-67
2020/12/11 01:03:41;;;;;;;57.38;26.27;;;0.80;99.90;;;;;;5095665;28;20028;-67
2020/12/11 01:06:06;;;;;;;60.80;27.88;;;0.80;99.90;;;;;;5093744;28;20456;-67
2020/12/11 01:08:32;;;;;;;57.65;26.27;;;0.80;99.90;;;;;;5095509;28;20025;-67
2020/12/11 01:10:57;;;;;;;58.95;27.02;;;0.80;99.90;;;;;;5093961;28;20032;-67
2020/12/11 01:13:23;;;;;;;55.80;26.27;;;0.80;99.90;;;;;;5094300;28;20024;-67
2020/12/11 01:15:49;;;;;;;54.92;26.30;;;0.80;99.90;;;;;;5093532;28;20139;-67
2020/12/11 01:18:14;;;;;;;54.75;26.75;;;0.80;99.90;;;;;;5093571;28;20032;-67
2020/12/11 01:20:40;;;;;;;60.60;25.80;;;0.80;99.90;;;;;;5093842;28;20021;-67
2020/12/11 01:23:05;;;;;;;53.10;24.77;;;0.80;99.90;;;;;;5095026;28;20031;-67
2020/12/11 01:25:31;;;;;;;58.10;26.55;;;0.80;99.90;;;;;;5094926;28;20030;-67
2020/12/11 01:27:56;;;;;;;51.90;24.85;;;0.80;99.90;;;;;;5094891;28;20024;-68
2020/12/11 01:30:22;;;;;;;59.45;27.38;;;0.80;99.90;;;;;;5093423;28;20502;-67
2020/12/11 01:32:48;;;;;;;58.25;27.83;;;0.80;99.90;;;;;;5094712;28;20026;-67
2020/12/11 01:35:13;;;;;;;57.50;26.95;;;0.80;99.90;;;;;;5093372;28;20027;-68
2020/12/11 01:37:39;;;;;;;60.75;26.65;;;0.80;99.90;;;;;;5093205;28;20077;-68
2020/12/11 01:40:06;;;;;;;56.65;25.88;;;0.80;99.90;;;;;;5094670;28;20574;-68
2020/12/11 01:42:31;;;;;;;62.78;27.77;;;0.80;99.90;;;;;;5093380;28;20114;-67
2020/12/11 01:44:57;;;;;;;55.15;24.80;;;0.80;99.90;;;;;;5093408;28;20059;-67
2020/12/11 01:47:23;;;;;;;55.55;25.50;;;0.90;99.90;;;;;;5094875;28;20024;-67
2020/12/11 01:49:51;;;;;;;58.15;25.70;;;0.90;99.90;;;;;;5094788;28;20024;-67
2020/12/11 01:52:18;;;;;;;55.95;26.35;;;0.90;99.90;;;;;;5094666;28;20450;-67
2020/12/11 01:54:45;;;;;;;60.05;27.23;;;0.90;99.90;;;;;;5094691;28;20016;-67
2020/12/11 01:57:21;;;;;;;58.08;26.73;;;0.90;99.90;;;;;;5094650;28;20063;-67
2020/12/11 01:59:52;;;;;;;51.85;25.05;;;0.90;99.90;;;;;;5092793;28;20024;-67
2020/12/11 02:02:20;;;;;;;55.28;25.45;;;0.90;99.90;;;;;;5094589;28;20020;-67
2020/12/11 02:04:45;;;;;;;56.55;26.58;;;1.00;99.90;;;;;;5092719;28;20062;-67
2020/12/11 02:07:11;;;;;;;50.72;24.45;;;1.00;99.90;;;;;;5075944;28;20056;-67
2020/12/11 02:09:38;;;;;;;56.60;25.35;;;1.00;99.90;;;;;;5092666;28;20024;-67
2020/12/11 02:12:04;;;;;;;52.40;24.38;;;1.00;99.90;;;;;;5094088;28;20020;-67
2020/12/11 02:14:30;;;;;;;53.10;24.52;;;1.00;99.90;;;;;;5092622;28;20119;-67
2020/12/11 02:17:02;;;;;;;53.92;25.98;;;1.00;99.90;;;;;;5094367;28;20465;-67
2020/12/11 02:19:33;;;;;;;58.17;25.70;;;1.00;99.90;;;;;;5094058;28;20472;-67
2020/12/11 02:22:05;;;;;;;53.20;25.50;;;1.10;99.90;;;;;;5092508;28;20112;-67
2020/12/11 02:24:30;;;;;;;49.85;24.17;;;1.00;99.90;;;;;;5094332;28;20465;-67
2020/12/11 02:26:57;;;;;;;53.25;24.98;;;1.00;99.90;;;;;;5094006;28;20035;-67
2020/12/11 02:29:23;;;;;;;56.70;26.38;;;1.10;99.90;;;;;;5093989;28;20532;-67
2020/12/11 02:31:49;;;;;;;53.90;24.60;;;1.00;99.90;;;;;;5094772;28;20048;-67
2020/12/11 02:34:15;;;;;;;50.92;24.17;;;1.00;99.90;;;;;;5092371;28;20508;-67
2020/12/11 02:36:41;;;;;;;53.60;25.08;;;1.00;99.90;;;;;;5094219;28;20016;-67
2020/12/11 02:39:06;;;;;;;51.35;25.73;;;1.10;99.90;;;;;;5094164;28;20024;-67
2020/12/11 02:41:32;;;;;;;54.97;24.00;;;1.10;99.90;;;;;;5092667;28;20043;-67
2020/12/11 02:43:58;;;;;;;53.65;23.75;;;1.20;99.90;;;;;;5093810;28;20051;-67
2020/12/11 02:46:24;;;;;;;48.92;23.80;;;1.20;99.90;;;;;;5092927;28;20377;-67
2020/12/11 02:48:49;;;;;;;47.03;23.48;;;1.30;99.90;;;;;;5098101;28;20519;-67
2020/12/11 02:51:15;;;;;;;51.03;25.02;;;1.20;99.90;;;;;;5096344;28;20097;-67
2020/12/11 02:53:40;;;;;;;51.72;24.50;;;1.30;99.90;;;;;;5096374;28;20024;-67
2020/12/11 02:56:06;;;;;;;47.83;23.77;;;1.20;99.90;;;;;;5096686;28;20024;-67
2020/12/11 02:58:32;;;;;;;51.20;25.80;;;1.20;99.90;;;;;;5097539;28;20031;-67
2020/12/11 03:00:57;;;;;;;52.22;24.85;;;1.30;99.90;;;;;;5097495;28;20020;-67
2020/12/11 03:03:23;;;;;;;51.45;23.40;;;1.20;99.90;;;;;;5096865;28;20036;-67
2020/12/11 03:05:48;;;;;;;50.25;24.45;;;1.30;99.90;;;;;;5097969;28;20465;-67
2020/12/11 03:08:14;;;;;;;48.50;23.65;;;1.30;99.90;;;;;;5097638;28;20105;-67
2020/12/11 03:10:39;;;;;;;51.42;24.50;;;1.30;99.90;;;;;;5097499;28;20077;-67
2020/12/11 03:13:05;;;;;;;51.85;24.73;;;1.20;99.90;;;;;;5097849;28;20035;-67
2020/12/11 03:15:31;;;;;;;54.40;26.02;;;1.20;99.90;;;;;;5096061;28;20078;-67
2020/12/11 03:17:56;;;;;;;55.80;23.58;;;1.10;99.90;;;;;;5097694;28;20016;-67
2020/12/11 03:20:23;;;;;;;52.42;24.73;;;1.20;99.90;;;;;;5096212;28;20024;-67
2020/12/11 03:22:53;;;;;;;52.17;25.83;;;1.10;99.90;;;;;;5079050;28;20028;-67
2020/12/11 03:25:19;;;;;;;50.80;24.52;;;1.10;99.90;;;;;;5097627;28;20024;-67
2020/12/11 03:27:45;;;;;;;53.22;25.08;;;1.10;99.90;;;;;;5096106;28;20030;-67
2020/12/11 03:30:10;;;;;;;50.95;24.02;;;1.10;99.90;;;;;;5097221;28;20044;-67
2020/12/11 03:32:37;;;;;;;52.55;25.02;;;1.10;99.90;;;;;;5097381;28;20024;-67
2020/12/11 03:35:04;;;;;;;54.35;25.98;;;1.10;99.90;;;;;;5097397;28;20013;-67
2020/12/11 03:37:30;;;;;;;54.83;25.83;;;1.10;99.90;;;;;;5096748;28;20469;-67
2020/12/11 03:39:55;;;;;;;53.83;24.73;;;1.10;99.90;;;;;;5095811;28;20073;-67
2020/12/11 03:42:21;;;;;;;52.42;23.92;;;1.10;99.90;;;;;;5097249;28;20437;-67
2020/12/11 03:44:46;;;;;;;54.10;25.58;;;1.10;99.90;;;;;;5095731;28;20473;-67
2020/12/11 03:47:12;;;;;;;52.55;24.20;;;1.10;99.90;;;;;;5095710;28;20052;-67
2020/12/11 03:49:37;;;;;;;55.90;25.95;;;1.20;99.90;;;;;;5097067;28;20039;-67
2020/12/11 03:52:03;;;;;;;53.75;25.63;;;1.10;99.90;;;;;;5078265;28;20028;-67
2020/12/11 03:54:28;;;;;;;50.15;24.00;;;1.10;99.90;;;;;;5097020;28;20468;-67
2020/12/11 03:56:54;;;;;;;49.75;24.80;;;1.20;99.90;;;;;;5095521;28;20051;-67
2020/12/11 03:59:20;;;;;;;49.63;23.73;;;1.20;99.90;;;;;;5077492;28;20016;-67
2020/12/11 04:01:45;;;;;;;47.38;22.63;;;1.30;99.90;;;;;;5078168;28;20389;-67
2020/12/11 04:04:11;;;;;;;48.65;23.98;;;1.30;99.90;;;;;;5096797;28;20027;-67
2020/12/11 04:06:36;;;;;;;53.40;23.73;;;1.30;99.90;;;;;;5095376;28;20028;-67
2020/12/11 04:09:03;;;;;;;47.33;22.73;;;1.40;99.90;;;;;;5096499;28;20461;-67
2020/12/11 04:11:28;;;;;;;47.28;21.83;;;1.40;99.90;;;;;;5094812;28;20034;-67
2020/12/11 04:13:54;;;;;;;45.30;22.20;;;1.40;99.90;;;;;;5096399;28;20095;-67
2020/12/11 04:16:20;;;;;;;51.35;24.38;;;1.40;99.90;;;;;;5096651;28;20389;-67
2020/12/11 04:18:45;;;;;;;45.88;22.58;;;1.40;99.90;;;;;;5094775;28;20111;-67
2020/12/11 04:21:13;;;;;;;47.88;22.95;;;1.40;99.90;;;;;;5096572;28;20047;-67
2020/12/11 04:23:39;;;;;;;45.85;23.30;;;1.40;99.90;;;;;;5096474;28;20043;-67
2020/12/11 04:26:04;;;;;;;48.38;23.85;;;1.40;99.90;;;;;;5096466;28;20461;-67
2020/12/11 04:28:30;;;;;;;47.08;22.63;;;1.30;99.90;;;;;;5096136;28;20426;-67
2020/12/11 04:30:55;;;;;;;49.95;24.00;;;1.30;99.90;;;;;;5095760;28;20101;-67
2020/12/11 04:33:21;;;;;;;46.72;23.13;;;1.30;99.90;;;;;;5095026;28;20028;-67
2020/12/11 04:35:47;;;;;;;47.75;22.42;;;1.20;99.90;;;;;;5094439;28;20017;-67
2020/12/11 04:38:12;;;;;;;51.42;23.58;;;1.20;99.90;;;;;;5094785;28;20032;-67
2020/12/11 04:40:38;;;;;;;47.17;24.00;;;1.20;99.90;;;;;;5096140;28;20028;-67
2020/12/11 04:43:04;;;;;;;53.70;24.42;;;1.20;99.90;;;;;;5094249;28;20077;-67
2020/12/11 04:45:30;;;;;;;46.85;23.63;;;1.10;99.90;;;;;;5095497;28;20017;-67
2020/12/11 04:47:56;;;;;;;50.75;23.05;;;1.10;99.90;;;;;;5095979;28;20385;-67
2020/12/11 04:50:21;;;;;;;49.92;23.67;;;1.20;99.90;;;;;;5095678;28;20030;-67
2020/12/11 04:52:48;;;;;;;48.35;22.70;;;1.10;99.90;;;;;;5095251;28;20024;-67
2020/12/11 04:55:16;;;;;;;51.75;23.85;;;1.10;99.90;;;;;;5094429;28;20032;-67
2020/12/11 04:57:45;;;;;;;48.53;23.38;;;1.10;99.90;;;;;;5094634;28;20020;-67
2020/12/11 05:00:11;;;;;;;48.63;22.58;;;1.10;99.90;;;;;;5095691;28;20019;-67
2020/12/11 05:02:40;;;;;;;49.40;24.15;;;1.10;99.90;;;;;;5077023;28;20028;-67
2020/12/11 05:05:07;;;;;;;51.83;23.83;;;1.10;99.90;;;;;;5095597;28;20041;-67
2020/12/11 05:07:33;;;;;;;49.33;23.45;;;1.00;99.90;;;;;;5095610;28;20024;-67
2020/12/11 05:09:59;;;;;;;47.88;22.95;;;1.00;99.90;;;;;;5093932;28;20048;-67
2020/12/11 05:12:25;;;;;;;51.33;23.00;;;1.00;99.90;;;;;;5093410;28;20062;-67
2020/12/11 05:14:59;;;;;;;53.58;24.23;;;1.00;99.90;;;;;;5093683;28;20119;-67
2020/12/11 05:17:28;;;;;;;55.25;24.65;;;0.90;99.90;;;;;;5095412;28;20461;-67
2020/12/11 05:19:55;;;;;;;51.95;24.33;;;0.90;99.90;;;;;;5093615;28;20027;-67
2020/12/11 05:22:22;;;;;;;55.42;25.92;;;0.90;99.90;;;;;;5093475;28;20024;-67
2020/12/11 05:24:51;;;;;;;55.20;25.15;;;0.90;99.90;;;;;;5095215;28;20071;-67
2020/12/11 05:27:27;;;;;;;49.90;22.90;;;0.90;99.90;;;;;;5094024;28;20020;-67
2020/12/11 05:29:54;;;;;;;48.58;23.02;;;0.90;99.90;;;;;;5093886;28;20164;-67
2020/12/11 05:32:37;;;;;;;53.40;23.48;;;0.90;99.90;;;;;;5094991;28;20028;-67
2020/12/11 05:35:06;;;;;;;50.67;22.52;;;0.90;99.90;;;;;;5095137;28;20012;-67
2020/12/11 05:37:44;;;;;;;55.08;24.98;;;1.00;99.90;;;;;;5093508;28;20028;-67
2020/12/11 05:40:20;;;;;;;52.33;24.50;;;1.00;99.90;;;;;;5094035;28;20119;-67
2020/12/11 05:43:21;;;;;;;51.25;24.50;;;1.00;99.90;;;;;;5094674;28;20065;-67
2020/12/11 05:45:56;;;;;;;52.22;24.20;;;1.00;99.90;;;;;;5094964;28;20027;-66
2020/12/11 05:48:41;;;;;;;51.63;24.13;;;1.10;99.90;;;;;;5094898;28;20099;-66
2020/12/11 05:51:15;;;;;;;55.92;24.33;;;1.10;99.90;;;;;;5093317;28;20049;-66
2020/12/11 05:53:41;;;;;;;55.63;25.08;;;1.20;99.90;;;;;;5076225;28;20031;-67
2020/12/11 05:56:07;;;;;;;50.85;23.88;;;1.20;99.90;;;;;;5093272;28;20491;-67
2020/12/11 05:58:33;;;;;;;50.40;24.05;;;1.20;99.90;;;;;;5092890;28;20111;-67
2020/12/11 06:01:00;;;;;;;50.00;24.33;;;1.30;99.90;;;;;;5094372;28;20363;-67
2020/12/11 06:03:27;;;;;;;51.70;24.13;;;1.30;99.90;;;;;;5094110;28;20028;-67
2020/12/11 06:05:56;;;;;;;52.78;24.40;;;1.20;99.90;;;;;;5093462;28;20072;-67
2020/12/11 06:08:25;;;;;;;54.30;25.48;;;1.30;99.90;;;;;;5094539;28;20063;-67
2020/12/11 06:10:51;;;;;;;58.35;25.90;;;1.30;99.90;;;;;;5093020;28;20165;-67
2020/12/11 06:13:32;;;;;;;55.30;25.48;;;1.30;99.90;;;;;;5076444;28;20103;-67
2020/12/11 06:16:01;;;;;;;49.55;22.95;;;1.30;99.90;;;;;;5094044;28;20342;-67
2020/12/11 06:18:29;;;;;;;52.92;25.58;;;1.40;99.90;;;;;;5094361;28;20023;-67
2020/12/11 06:20:55;;;;;;;52.90;24.63;;;1.30;99.90;;;;;;5094377;28;20031;-67
2020/12/11 06:23:22;;;;;;;53.38;25.25;;;1.40;99.90;;;;;;5093724;28;20381;-67
2020/12/11 06:25:51;;;;;;;50.63;25.15;;;1.40;99.90;;;;;;5092876;28;20112;-67
2020/12/11 06:28:39;;;;;;;49.22;23.73;;;1.50;99.90;;;;;;5092521;28;20028;-67
2020/12/11 06:31:08;;;;;;;52.38;25.02;;;1.40;99.90;;;;;;5078542;28;20455;-67
2020/12/11 06:33:36;;;;;;;54.95;25.55;;;1.40;99.90;;;;;;5093837;28;20040;-67
2020/12/11 06:36:04;;;;;;;52.47;24.20;;;1.40;99.90;;;;;;5093915;28;20053;-67
2020/12/11 06:41:38;;;;;;;53.70;25.40;;;1.40;99.90;;;;;;5112261;27;20396;-66
2020/12/11 06:47:06;;;;;;;51.08;24.30;;;1.40;99.90;;;;;;5112286;27;20347;-66
2020/12/11 06:49:32;;;;;;;49.72;24.17;;;1.50;99.90;;;;;;5111675;28;20073;-66
2020/12/11 06:57:29;;;;;;;52.90;31.70;;;1.50;99.90;;;;;;5110137;27;20439;-67
2020/12/11 06:59:55;;;;;;;48.72;25.50;;;1.50;99.90;;;;;;5111826;28;20030;-66
2020/12/11 07:02:20;;;;;;;45.28;23.73;;;1.50;99.90;;;;;;5111359;28;20102;-65
2020/12/11 07:04:48;;;;;;;50.13;24.70;;;1.50;99.90;;;;;;5110641;28;20027;-67
2020/12/11 07:07:14;;;;;;;49.47;23.33;;;1.50;99.90;;;;;;5111777;28;20028;-67
2020/12/11 07:09:42;;;;;;;53.20;24.75;;;1.50;99.90;;;;;;5110158;28;20031;-67
2020/12/11 07:12:08;;;;;;;48.72;24.48;;;1.50;99.90;;;;;;5110423;28;20376;-65
2020/12/11 07:14:34;;;;;;;45.50;23.00;;;1.50;99.90;;;;;;5110048;28;20019;-67
2020/12/11 07:17:00;;;;;;;51.35;25.55;;;1.40;99.90;;;;;;5109587;28;20392;-67
2020/12/11 07:19:31;;;;;;;49.88;25.35;;;1.40;99.90;;;;;;5092024;28;20024;-67
2020/12/11 07:21:58;;;;;;;52.28;26.77;;;1.40;99.90;;;;;;5092624;28;20028;-66
2020/12/11 07:24:24;;;;;;;51.05;26.85;;;1.40;99.90;;;;;;5111120;28;20055;-65
2020/12/11 07:27:00;;;;;;;54.22;27.10;;;1.40;99.90;;;;;;5109309;28;20507;-67
2020/12/11 07:29:25;;;;;;;55.00;25.08;;;1.40;99.90;;;;;;5110814;28;20043;-67
2020/12/11 07:31:52;;;;;;;45.97;23.30;;;1.40;99.90;;;;;;5109550;28;20051;-67
2020/12/11 07:34:20;;;;;;;52.13;24.95;;;1.40;99.90;;;;;;5109785;28;20024;-67
2020/12/11 07:36:47;;;;;;;48.90;25.02;;;1.40;99.90;;;;;;5110697;28;20417;-67
2020/12/11 07:39:14;;;;;;;51.00;25.30;;;1.30;99.90;;;;;;5109787;28;20030;-67
2020/12/11 07:41:43;;;;;;;50.90;24.40;;;1.30;99.90;;;;;;5110227;28;20053;-67
2020/12/11 07:44:10;;;;;;;53.60;26.80;;;1.30;99.90;;;;;;5097500;28;20016;-67
2020/12/11 07:46:39;;;;;;;50.58;24.20;;;1.30;99.90;;;;;;5107526;28;20470;-67
2020/12/11 07:49:05;;;;;;;49.25;24.92;;;1.30;99.90;;;;;;5115649;28;20145;-67
2020/12/11 07:51:32;;;;;;;43.95;23.27;;;1.30;99.90;;;;;;5111179;28;20067;-67
2020/12/11 07:53:57;;;;;;;49.28;25.50;;;1.30;99.90;;;;;;5110446;28;20023;-67
2020/12/11 07:56:26;;;;;;;51.17;25.63;;;1.40;99.90;;;;;;5109049;28;20060;-67
2020/12/11 07:58:53;;;;;;;48.55;24.30;;;1.40;99.90;;;;;;5108410;28;20073;-67
2020/12/11 08:01:18;;;;;;;46.97;23.77;;;1.50;99.90;;;;;;5109146;28;20019;-67
2020/12/11 08:03:44;;;;;;;44.92;24.38;;;1.60;99.90;;;;;;5110402;28;20107;-67
2020/12/11 08:06:12;;;;;;;44.10;22.92;;;1.60;99.90;;;;;;5108731;28;20132;-67
2020/12/11 08:08:37;;;;;;;44.15;22.63;;;1.80;99.90;;;;;;5097214;28;20020;-67
2020/12/11 08:11:03;;;;;;;44.03;23.17;;;1.90;99.90;;;;;;5094888;28;20043;-67
2020/12/11 08:13:28;;;;;;;45.25;22.52;;;2.00;99.90;;;;;;5096077;28;20525;-67
2020/12/11 08:16:01;;;;;;;46.42;23.58;;;2.10;99.90;;;;;;5096106;28;20024;-66
2020/12/11 08:18:29;;;;;;;39.25;22.08;;;2.20;99.90;;;;;;5095329;28;20075;-67
2020/12/11 08:20:59;;;;;;;40.58;22.90;;;2.20;99.90;;;;;;5096569;28;20028;-67
2020/12/11 08:23:43;;;;;;;38.40;21.70;;;2.20;99.90;;;;;;5094747;28;20205;-67
2020/12/11 08:26:12;;;;;;;42.20;21.83;;;2.30;99.90;;;;;;5096102;28;20031;-66
2020/12/11 08:28:38;;;;;;;42.35;22.10;;;2.40;99.90;;;;;;5095974;28;20020;-67
2020/12/11 08:31:13;;;;;;;42.40;21.90;;;2.50;99.90;;;;;;5094749;28;20112;-66
2020/12/11 08:33:39;;;;;;;37.97;20.83;;;2.50;99.90;;;;;;5095569;28;20024;-67
2020/12/11 08:36:04;;;;;;;43.75;22.17;;;2.50;99.90;;;;;;5094534;28;20028;-67
2020/12/11 08:38:30;;;;;;;40.65;22.42;;;2.70;99.90;;;;;;5093966;28;20107;-67
2020/12/11 08:40:55;;;;;;;35.28;20.88;;;3.20;99.90;;;;;;5095169;28;20133;-67
2020/12/11 08:43:31;;;;;;;34.67;19.83;;;3.90;99.90;;;;;;5095266;28;20102;-66
2020/12/11 08:46:15;;;;;;;36.38;19.13;;;4.10;99.90;;;;;;5093697;28;20035;-67
2020/12/11 08:49:05;;;;;;;32.72;19.52;;;4.40;99.90;;;;;;5093816;28;20032;-67
2020/12/11 08:51:31;;;;;;;35.03;19.63;;;4.50;99.90;;;;;;5095096;28;20477;-67
2020/12/11 08:53:57;;;;;;;37.17;21.38;;;4.30;99.90;;;;;;5095335;28;20028;-67
2020/12/11 08:56:23;;;;;;;36.85;20.50;;;3.90;99.90;;;;;;5093822;28;20040;-66
2020/12/11 08:58:48;;;;;;;33.63;19.73;;;3.70;99.90;;;;;;5094068;28;20020;-67
2020/12/11 09:01:14;;;;;;;35.10;20.08;;;3.50;99.90;;;;;;5093747;28;20123;-67
2020/12/11 09:03:40;;;;;;;38.38;20.70;;;3.50;99.90;;;;;;5095199;28;20024;-67
2020/12/11 09:06:05;;;;;;;32.58;19.05;;;3.50;99.90;;;;;;5095525;28;20473;-67
2020/12/11 09:08:31;;;;;;;35.05;20.85;;;3.40;99.90;;;;;;5093921;28;20024;-67
2020/12/11 09:10:56;;;;;;;32.05;19.88;;;3.50;99.90;;;;;;5076439;28;20473;-67
2020/12/11 09:13:22;;;;;;;29.95;19.05;;;3.50;99.90;;;;;;5094957;28;20028;-66
2020/12/11 09:15:47;;;;;;;27.45;16.67;;;3.50;99.90;;;;;;5093805;28;20073;-66
2020/12/11 09:18:13;;;;;;;31.80;17.08;;;4.00;99.90;;;;;;5094077;28;20467;-67
2020/12/11 09:20:38;;;;;;;24.00;15.43;;;5.00;99.90;;;;;;5094319;28;20024;-67
2020/12/11 09:23:04;;;;;;;26.48;16.10;;;4.90;99.90;;;;;;5094119;28;20102;-67
2020/12/11 09:25:30;;;;;;;27.02;15.32;;;4.80;99.90;;;;;;5093387;28;20025;-66
2020/12/11 09:27:55;;;;;;;22.67;13.70;;;4.60;99.90;;;;;;5094859;28;20028;-66
2020/12/11 09:30:28;;;;;;;25.33;14.43;;;5.60;99.90;;;;;;5093236;28;20028;-67
2020/12/11 09:33:15;;;;;;;21.05;13.80;;;6.00;99.90;;;;;;5093604;28;20024;-67
2020/12/11 09:35:39;;;;;;;18.73;13.45;;;6.80;99.90;;;;;;5094028;28;20427;-67
2020/12/11 09:38:05;;;;;;;23.00;14.30;;;8.00;99.90;;;;;;5094290;28;20077;-67
2020/12/11 09:43:40;;;;;;;21.00;14.20;;;7.50;99.90;;;;;;5070633;28;20357;-65
2020/12/11 09:46:20;;;;;;;22.05;14.60;;;6.80;99.90;;;;;;5058909;28;20032;-66
2020/12/11 09:49:04;;;;;;;24.42;15.43;;;6.50;99.90;;;;;;5070356;28;20021;-65
2020/12/11 09:54:10;;;;;;;24.50;14.95;;;5.70;99.90;;;;;;5071592;28;20738;-67
2020/12/11 09:56:36;;;;;;;24.90;15.18;;;5.40;99.90;;;;;;5070422;28;20079;-65
2020/12/11 09:59:08;;;;;;;25.30;14.82;;;4.90;99.90;;;;;;5052778;28;20033;-66
2020/12/11 10:04:19;;;;;;;27.70;16.65;;;4.60;99.90;;;;;;5069757;28;20074;-67
2020/12/11 10:06:45;;;;;;;26.00;15.98;;;4.60;99.90;;;;;;5052619;28;20029;-68
2020/12/11 10:09:10;;;;;;;25.23;14.70;;;4.60;99.90;;;;;;5052344;28;20537;-67
2020/12/11 10:11:36;;;;;;;25.75;15.63;;;4.50;99.90;;;;;;5070340;28;20029;-67
2020/12/11 10:14:33;;;;;;;27.90;15.60;;;4.50;99.90;;;;;;5069437;28;20453;-67
2020/12/11 10:16:51;;;;;;;27.50;16.27;;;4.40;99.90;;;;;;5070056;28;20056;-67
2020/12/11 10:19:17;;;;;;;26.35;15.57;;;4.40;99.90;;;;;;5069679;28;20017;-67
2020/12/11 10:21:47;;;;;;;26.55;16.27;;;4.40;99.90;;;;;;5070114;28;20516;-67
2020/12/11 10:24:12;;;;;;;27.25;15.75;;;4.50;99.90;;;;;;5069198;28;20028;-65
2020/12/11 10:26:39;;;;;;;26.40;16.02;;;4.60;99.90;;;;;;5069634;28;20029;-65
2020/12/11 10:29:05;;;;;;;28.27;16.08;;;4.60;99.90;;;;;;5069840;28;20104;-67
2020/12/11 10:31:30;;;;;;;25.05;15.60;;;4.60;99.90;;;;;;5069528;28;20447;-66
2020/12/11 10:33:56;;;;;;;27.98;16.25;;;4.60;99.90;;;;;;5069697;28;20028;-67
2020/12/11 10:36:28;;;;;;;28.88;15.70;;;4.60;99.90;;;;;;5069731;28;20021;-67
2020/12/11 10:38:53;;;;;;;26.40;15.43;;;4.60;99.90;;;;;;5069335;28;20013;-66
2020/12/11 10:41:21;;;;;;;25.08;14.85;;;4.70;99.90;;;;;;5069203;28;20025;-67
2020/12/11 10:43:47;;;;;;;24.90;15.05;;;4.80;99.90;;;;;;5051083;28;20028;-67
2020/12/11 10:46:13;;;;;;;23.58;14.05;;;4.80;99.90;;;;;;5069212;28;20032;-67
2020/12/11 10:48:38;;;;;;;26.88;15.80;;;4.80;99.90;;;;;;5034989;28;20040;-67
2020/12/11 10:51:04;;;;;;;34.60;17.90;;;4.80;99.90;;;;;;5051432;28;20470;-65
2020/12/11 10:53:29;;;;;;;27.38;16.02;;;4.80;99.90;;;;;;5069256;28;20047;-67
2020/12/11 10:55:55;;;;;;;24.75;15.27;;;4.80;99.90;;;;;;5051550;28;20071;-66
2020/12/11 10:58:21;;;;;;;22.75;13.90;;;4.90;99.90;;;;;;5035233;28;20025;-66
2020/12/11 11:00:46;;;;;;;23.75;15.20;;;4.90;99.90;;;;;;5069037;28;20021;-67
2020/12/11 11:03:12;;;;;;;27.42;15.30;;;5.00;99.90;;;;;;5050764;28;20086;-66
2020/12/11 11:05:39;;;;;;;22.35;14.32;;;5.10;99.90;;;;;;5037130;28;20056;-72
2020/12/11 11:08:05;;;;;;;25.70;15.65;;;5.10;99.90;;;;;;5055176;28;20017;-72
2020/12/11 11:10:38;;;;;;;25.02;14.52;;;5.20;99.90;;;;;;5055250;28;20021;-72
2020/12/11 11:13:15;;;;;;;25.33;14.82;;;5.20;99.90;;;;;;5055545;28;20033;-73
2020/12/11 11:15:48;;;;;;;23.67;14.77;;;5.20;99.90;;;;;;5055582;28;20021;-73
2020/12/11 11:18:30;;;;;;;24.80;14.50;;;5.30;99.90;;;;;;5055347;28;20084;-72
2020/12/11 11:21:08;;;;;;;23.88;14.20;;;5.40;99.90;;;;;;5056010;28;20067;-72
2020/12/11 11:23:44;;;;;;;23.63;14.27;;;5.50;99.90;;;;;;5037764;28;20195;-72
2020/12/11 11:26:18;;;;;;;27.40;13.55;;;5.50;99.90;;;;;;5055275;28;20044;-72
2020/12/11 11:28:43;;;;;;;24.45;14.55;;;5.60;99.90;;;;;;5036932;28;20021;-72
2020/12/11 11:31:11;;;;;;;23.83;14.35;;;5.60;99.90;;;;;;5055528;28;20040;-72
2020/12/11 11:33:37;;;;;;;25.48;14.77;;;5.60;99.90;;;;;;5055129;28;20021;-72
2020/12/11 11:36:02;;;;;;;30.20;14.98;;;5.60;99.90;;;;;;5037501;28;20043;-72
2020/12/11 11:38:28;;;;;;;25.50;14.30;;;5.60;99.90;;;;;;5055313;28;20443;-72
2020/12/11 11:40:54;;;;;;;23.08;14.07;;;5.60;99.90;;;;;;5055125;28;20025;-72
2020/12/11 11:43:28;;;;;;;19.98;12.80;;;5.60;99.90;;;;;;5055195;28;20359;-72
2020/12/11 11:45:54;;;;;;;21.38;13.18;;;5.70;99.90;;;;;;5054894;28;20027;-72
2020/12/11 11:48:20;;;;;;;20.95;12.55;;;5.80;99.90;;;;;;5055140;28;20029;-72
2020/12/11 11:50:55;;;;;;;20.92;13.38;;;5.80;99.90;;;;;;5055398;28;20025;-73
2020/12/11 11:53:21;;;;;;;20.90;12.77;;;5.70;99.90;;;;;;5054772;28;20125;-73
2020/12/11 11:55:47;;;;;;;22.77;13.27;;;5.70;99.90;;;;;;5037662;28;20043;-72
2020/12/11 11:58:14;;;;;;;20.77;12.60;;;5.70;99.90;;;;;;5036847;28;20021;-73
2020/12/11 12:00:40;;;;;;;19.83;11.93;;;5.70;99.90;;;;;;5037575;28;20096;-72
2020/12/11 12:03:05;;;;;;;18.98;11.65;;;5.70;99.90;;;;;;5038711;28;20033;-72
2020/12/11 12:05:31;;;;;;;20.85;12.07;;;5.70;99.90;;;;;;5036139;28;20032;-66
2020/12/11 12:07:57;;;;;;;20.35;11.82;;;5.70;99.90;;;;;;5054482;28;20071;-66
2020/12/11 12:10:22;;;;;;;20.90;12.43;;;5.70;99.90;;;;;;5053873;28;20387;-67
2020/12/11 12:12:48;;;;;;;19.83;12.23;;;5.80;99.90;;;;;;5054704;28;20025;-67
2020/12/11 12:15:16;;;;;;;25.02;13.18;;;5.80;99.90;;;;;;5036003;28;20052;-67
2020/12/11 12:17:53;;;;;;;20.90;12.98;;;5.80;99.90;;;;;;5035704;28;20021;-67
2020/12/11 12:20:32;;;;;;;19.40;11.13;;;5.80;99.90;;;;;;5054070;28;20348;-67
2020/12/11 12:27:20;;;;;;;19.35;12.02;;;5.90;99.90;;;;;;5038332;28;20167;-67
2020/12/11 12:29:03;;;;;;;18.45;11.05;;;5.90;99.90;;;;;;5052897;28;20037;-66
2020/12/11 12:31:22;;;;;;;18.35;11.27;;;5.90;99.90;;;;;;5053332;28;20033;-67
2020/12/11 12:34:23;;;;;;;18.38;11.63;;;5.90;99.90;;;;;;5054035;28;20035;-67
2020/12/11 12:42:25;;;;;;;18.90;11.15;;;5.90;99.90;;;;;;5110655;27;20359;-67
2020/12/11 12:44:50;;;;;;;18.23;10.77;;;5.80;99.90;;;;;;5110480;28;20031;-67
2020/12/11 12:47:16;;;;;;;17.52;10.48;;;5.90;99.90;;;;;;5109790;28;20031;-66
2020/12/11 12:49:42;;;;;;;23.08;11.63;;;5.80;99.90;;;;;;5110549;28;20059;-67
2020/12/11 12:52:07;;;;;;;17.67;10.32;;;5.90;99.90;;;;;;5092196;28;20020;-67
2020/12/11 12:54:33;;;;;;;19.98;10.95;;;5.90;99.90;;;;;;5108809;28;20028;-67
2020/12/11 12:57:01;;;;;;;16.45;10.48;;;5.90;99.90;;;;;;5109169;28;20433;-66
2020/12/11 13:05:12;;;;;;;16.40;9.60;;;5.90;99.90;;;;;;5110738;27;20754;-65
2020/12/11 13:07:37;;;;;;;17.42;9.95;;;5.90;99.90;;;;;;5110411;28;20070;-67
2020/12/11 13:10:05;;;;;;;16.38;9.40;;;5.90;99.90;;;;;;5111186;28;20031;-67
2020/12/11 13:12:31;;;;;;;16.02;10.60;;;5.80;99.90;;;;;;5110596;28;20499;-67
2020/12/11 13:14:56;;;;;;;16.70;10.05;;;5.80;99.90;;;;;;5110738;28;20027;-67